テルアビブ / ベン・グリオン の空港の天気 - METARとTAF

ベン・グリオン国際空港(テルアビブ) ( LLBG / TLV ) - イスラエル ロード / テルアビブ
飛行場実況気象(Metar)
観測時間06/24 12:50 IDT (06/24 09:50 UTC)
風向・風速西北西 6m/s
視程10km以上
天気現象
なし
気温31℃
湿度59%
気圧1009hPa
METARLLBG 240950Z 30011KT CAVOK 31/22 Q1009 NOSIG
過去の天気等 Google飛行場航空写真 Wunderground天気予報

過去48時間のMETAR

飛行場予報(TAF)
発表時間: 6/24 08:04 IDT (6/24 05:04 UTC)
予報対象時間: 24日9時 IDT ~ 25日9時 IDT
風向・風速不定 2m/s
視程10km以上
全天の4割程度の雲 雲底高度 610m
24日9時 IDT ~ 24日10時 IDT に一時的に
全天の8割程度の雲 雲底高度 520m
24日10時 IDT ~ 24日12時 IDT に徐々に
風向・風速北西 6m/s
視程10km以上
なし
24日18時 IDT ~ 24日20時 IDT に徐々に
風向・風速北 3m/s
視程10km以上
少しの雲 雲底高度 460m
24日22時 IDT ~ 24日24時 IDT に徐々に
風向・風速不定 2m/s
全天の4割程度の雲 雲底高度 460m
25日0時 IDT から 確率 40% で
視程8000m
全天の8割程度の雲 雲底高度 370m
TAF LLBG 240504Z 2406/2506 VRB04KT 9999 SCT020
TEMPO 2406/2407 BKN017
BECMG 2407/2409 31012KT CAVOK
BECMG 2415/2417 36006KT 9999 FEW015
BECMG 2419/2421 VRB04KT SCT015
PROB40 2421/2506 8000 BKN012 TX32/2411Z TN24/2504Z